Buckley, WA (98321)

05:09 PM PST on februarie 06, 2016 (GMT -0800)
South Prairie, WA | | Change Station
CLOSE
Current Station
Staţie meteo personală
Location: South Prairie, WA
Elevation: 433 ft
Nearby Weather Stations

Elev 433 ft 47.14 °N, 122.09 °W | Updated 9 seconds ago

Cer acoperit
Cer acoperit
46.6 °F
Feels Like 47 °F
N
0.0
Vânt variabil Vânt from sud
Gusts 0.0 mph

astăzi
High -- | Low -- °F
--% Chance of Precip.
Ieri
High -- | Low -- °F
Precip. -- inch
Presiunea 30.44 inch
Vizibilitatea 10.0 mile
Nori Nori risipiţi 12000 ft
Vânt rece 47 °F
Punctul de rouă 38 °F
Umiditatea 72%
Precipitaţii 0.11 inch
Adâncimea zăpezii Not available.
7:27 AM 5:17 PM
Semilună în descreştere, 3% visible
METAR KPLU 070055Z AUTO 00000KT 10SM SCT120 08/06 A3044 RMK AO2
Presiunea 30.44 inch
Vizibilitatea 10.0 mile
Nori Nori risipiţi 12000 ft
Vânt rece 47 °F
Punctul de rouă 38 °F
Umiditatea 72%
Precipitaţii 0.11 inch
Adâncimea zăpezii Not available.
7:27 AM 5:17 PM
Semilună în descreştere, 3% visible
METAR KPLU 070055Z AUTO 00000KT 10SM SCT120 08/06 A3044 RMK AO2

10-Day Weather Forecast

Almanac

Astronomie

Feb. 06, 2016 Răsărit Apus
Timpul Actual
Crepusculul Civil
Crepusculul nautic
Răsărit Astronomic
Luna
Durata zilei lumină
Lungimea zilei
Tomorrow will be .
, % of the Moon is Illuminated

Extremele de azi

State Highs State Lows

Community

WunderPhotos

Upload Photos

1,891,113 photos uploaded!

WunderBlog® & News

Nearby

Calitatea aerului

  Calitatea aerului Index de calitate a aerului Poluat
Not available.

Adâncimea zapezii

Station Depth Elevation

Earthquake Activity

Oraş Distance Mag. Time & Date
Minimum magnitude displayed is 2.5.

Coastal Water Temperatures

Locul Temperatura

Stations

Nearby Weather Stations

Locaţia staţiei Temp Vânt rece Punctul de rouă Umiditatea Vânt Precip. Elev Actualizare Type
                   

Watches & Warnings

There are currently no watches in effect.